sensor_id;sensor_type;location;lat;lon;timestamp;P1;durP1;ratioP1;P2;durP2;ratioP2
5343;SDS011;2694;48.950;8.970;2022-11-13T00:00:49;24.25;;;14.70;;
5343;SDS011;2694;48.950;8.970;2022-11-13T00:03:17;24.50;;;15.20;;
5343;SDS011;2694;48.950;8.970;2022-11-13T00:05:47;31.27;;;16.98;;
5343;SDS011;2694;48.950;8.970;2022-11-13T00:08:14;23.90;;;15.27;;
5343;SDS011;2694;48.950;8.970;2022-11-13T00:10:41;28.50;;;16.67;;
5343;SDS011;2694;48.950;8.970;2022-11-13T00:13:08;31.48;;;16.45;;
5343;SDS011;2694;48.950;8.970;2022-11-13T00:15:37;22.10;;;15.30;;
5343;SDS011;2694;48.950;8.970;2022-11-13T00:18:04;24.02;;;15.27;;
5343;SDS011;2694;48.950;8.970;2022-11-13T00:20:32;22.58;;;14.50;;
5343;SDS011;2694;48.950;8.970;2022-11-13T00:23:01;25.40;;;15.10;;
5343;SDS011;2694;48.950;8.970;2022-11-13T00:25:28;22.45;;;14.43;;
5343;SDS011;2694;48.950;8.970;2022-11-13T00:27:55;23.77;;;14.00;;
5343;SDS011;2694;48.950;8.970;2022-11-13T00:30:24;23.60;;;13.48;;
5343;SDS011;2694;48.950;8.970;2022-11-13T00:32:52;20.73;;;12.63;;
5343;SDS011;2694;48.950;8.970;2022-11-13T00:35:20;27.00;;;14.63;;
5343;SDS011;2694;48.950;8.970;2022-11-13T00:37:47;28.03;;;15.30;;
5343;SDS011;2694;48.950;8.970;2022-11-13T00:40:14;24.45;;;15.30;;
5343;SDS011;2694;48.950;8.970;2022-11-13T00:42:42;23.60;;;13.82;;
5343;SDS011;2694;48.950;8.970;2022-11-13T00:45:09;25.52;;;14.63;;
5343;SDS011;2694;48.950;8.970;2022-11-13T00:47:36;25.63;;;15.00;;
5343;SDS011;2694;48.950;8.970;2022-11-13T00:50:06;22.88;;;14.63;;
5343;SDS011;2694;48.950;8.970;2022-11-13T00:52:33;28.00;;;14.90;;
5343;SDS011;2694;48.950;8.970;2022-11-13T00:55:01;23.05;;;14.10;;
5343;SDS011;2694;48.950;8.970;2022-11-13T00:57:28;23.48;;;13.60;;
5343;SDS011;2694;48.950;8.970;2022-11-13T00:59:55;23.87;;;14.23;;
5343;SDS011;2694;48.950;8.970;2022-11-13T01:02:22;22.23;;;13.63;;
5343;SDS011;2694;48.950;8.970;2022-11-13T01:04:49;22.00;;;13.77;;
5343;SDS011;2694;48.950;8.970;2022-11-13T01:07:18;24.58;;;13.80;;
5343;SDS011;2694;48.950;8.970;2022-11-13T01:09:48;25.10;;;13.80;;
5343;SDS011;2694;48.950;8.970;2022-11-13T01:12:15;19.50;;;12.27;;
5343;SDS011;2694;48.950;8.970;2022-11-13T01:14:43;25.25;;;13.10;;
5343;SDS011;2694;48.950;8.970;2022-11-13T01:17:10;24.08;;;12.02;;
5343;SDS011;2694;48.950;8.970;2022-11-13T01:19:37;18.48;;;11.32;;
5343;SDS011;2694;48.950;8.970;2022-11-13T01:22:04;23.98;;;12.50;;
5343;SDS011;2694;48.950;8.970;2022-11-13T01:24:34;22.60;;;12.23;;
5343;SDS011;2694;48.950;8.970;2022-11-13T01:27:01;24.60;;;13.20;;
5343;SDS011;2694;48.950;8.970;2022-11-13T01:29:29;29.15;;;13.20;;
5343;SDS011;2694;48.950;8.970;2022-11-13T01:31:56;22.83;;;13.35;;
5343;SDS011;2694;48.950;8.970;2022-11-13T01:34:23;22.20;;;12.80;;
5343;SDS011;2694;48.950;8.970;2022-11-13T01:36:50;20.70;;;12.07;;
5343;SDS011;2694;48.950;8.970;2022-11-13T01:39:17;31.73;;;13.63;;
5343;SDS011;2694;48.950;8.970;2022-11-13T01:41:46;25.65;;;14.10;;
5343;SDS011;2694;48.950;8.970;2022-11-13T01:44:14;34.70;;;13.15;;
5343;SDS011;2694;48.950;8.970;2022-11-13T01:46:43;21.65;;;12.25;;
5343;SDS011;2694;48.950;8.970;2022-11-13T01:49:16;17.33;;;11.13;;
5343;SDS011;2694;48.950;8.970;2022-11-13T01:51:51;32.97;;;13.68;;
5343;SDS011;2694;48.950;8.970;2022-11-13T01:54:21;21.83;;;12.23;;
5343;SDS011;2694;48.950;8.970;2022-11-13T01:56:53;26.63;;;12.45;;
5343;SDS011;2694;48.950;8.970;2022-11-13T01:59:23;32.40;;;13.80;;
5343;SDS011;2694;48.950;8.970;2022-11-13T02:01:52;22.67;;;12.30;;
5343;SDS011;2694;48.950;8.970;2022-11-13T02:04:20;32.60;;;13.50;;
5343;SDS011;2694;48.950;8.970;2022-11-13T02:06:48;20.37;;;12.20;;
5343;SDS011;2694;48.950;8.970;2022-11-13T02:09:19;19.30;;;12.38;;
5343;SDS011;2694;48.950;8.970;2022-11-13T02:11:50;20.55;;;12.70;;
5343;SDS011;2694;48.950;8.970;2022-11-13T02:14:19;24.10;;;12.20;;
5343;SDS011;2694;48.950;8.970;2022-11-13T02:16:50;20.53;;;11.47;;
5343;SDS011;2694;48.950;8.970;2022-11-13T02:19:22;21.70;;;11.45;;
5343;SDS011;2694;48.950;8.970;2022-11-13T02:21:55;27.00;;;11.95;;
5343;SDS011;2694;48.950;8.970;2022-11-13T02:24:31;22.63;;;12.20;;
5343;SDS011;2694;48.950;8.970;2022-11-13T02:27:03;15.50;;;10.00;;
5343;SDS011;2694;48.950;8.970;2022-11-13T02:29:34;20.65;;;12.10;;
5343;SDS011;2694;48.950;8.970;2022-11-13T02:32:01;22.95;;;12.48;;
5343;SDS011;2694;48.950;8.970;2022-11-13T02:34:29;20.90;;;12.55;;
5343;SDS011;2694;48.950;8.970;2022-11-13T02:36:57;18.10;;;11.05;;
5343;SDS011;2694;48.950;8.970;2022-11-13T02:39:24;18.75;;;11.23;;
5343;SDS011;2694;48.950;8.970;2022-11-13T02:41:53;20.07;;;11.83;;
5343;SDS011;2694;48.950;8.970;2022-11-13T02:44:20;24.50;;;11.45;;
5343;SDS011;2694;48.950;8.970;2022-11-13T02:46:47;18.10;;;10.33;;
5343;SDS011;2694;48.950;8.970;2022-11-13T02:49:14;12.35;;;9.43;;
5343;SDS011;2694;48.950;8.970;2022-11-13T02:51:42;20.90;;;10.30;;
5343;SDS011;2694;48.950;8.970;2022-11-13T02:54:09;19.88;;;11.88;;
5343;SDS011;2694;48.950;8.970;2022-11-13T02:56:36;20.23;;;10.93;;
5343;SDS011;2694;48.950;8.970;2022-11-13T02:59:05;19.50;;;10.45;;
5343;SDS011;2694;48.950;8.970;2022-11-13T03:01:32;24.45;;;11.18;;
5343;SDS011;2694;48.950;8.970;2022-11-13T03:04:00;16.10;;;10.20;;
5343;SDS011;2694;48.950;8.970;2022-11-13T03:06:27;18.67;;;10.37;;
5343;SDS011;2694;48.950;8.970;2022-11-13T03:08:54;23.40;;;11.48;;
5343;SDS011;2694;48.950;8.970;2022-11-13T03:11:22;32.70;;;11.43;;
5343;SDS011;2694;48.950;8.970;2022-11-13T03:13:49;19.48;;;10.23;;
5343;SDS011;2694;48.950;8.970;2022-11-13T03:16:18;27.45;;;11.52;;
5343;SDS011;2694;48.950;8.970;2022-11-13T03:18:45;15.10;;;9.93;;
5343;SDS011;2694;48.950;8.970;2022-11-13T03:21:13;18.90;;;10.18;;
5343;SDS011;2694;48.950;8.970;2022-11-13T03:23:42;15.18;;;9.20;;
5343;SDS011;2694;48.950;8.970;2022-11-13T03:26:10;13.98;;;9.35;;
5343;SDS011;2694;48.950;8.970;2022-11-13T03:28:39;15.38;;;9.45;;
5343;SDS011;2694;48.950;8.970;2022-11-13T03:31:07;17.00;;;10.18;;
5343;SDS011;2694;48.950;8.970;2022-11-13T03:33:36;16.98;;;9.13;;
5343;SDS011;2694;48.950;8.970;2022-11-13T03:36:03;23.40;;;9.80;;
5343;SDS011;2694;48.950;8.970;2022-11-13T03:38:31;29.65;;;9.27;;
5343;SDS011;2694;48.950;8.970;2022-11-13T03:40:59;22.23;;;9.83;;
5343;SDS011;2694;48.950;8.970;2022-11-13T03:43:26;18.02;;;9.50;;
5343;SDS011;2694;48.950;8.970;2022-11-13T03:45:54;21.37;;;8.80;;
5343;SDS011;2694;48.950;8.970;2022-11-13T03:48:21;19.40;;;9.68;;
5343;SDS011;2694;48.950;8.970;2022-11-13T03:50:51;43.13;;;10.68;;
5343;SDS011;2694;48.950;8.970;2022-11-13T03:53:20;19.58;;;9.13;;
5343;SDS011;2694;48.950;8.970;2022-11-13T03:55:47;16.52;;;8.85;;
5343;SDS011;2694;48.950;8.970;2022-11-13T03:58:14;14.85;;;9.45;;
5343;SDS011;2694;48.950;8.970;2022-11-13T04:00:42;17.65;;;8.95;;
5343;SDS011;2694;48.950;8.970;2022-11-13T04:03:10;12.43;;;8.97;;
5343;SDS011;2694;48.950;8.970;2022-11-13T04:05:37;17.63;;;10.60;;
5343;SDS011;2694;48.950;8.970;2022-11-13T04:08:06;12.23;;;9.02;;
5343;SDS011;2694;48.950;8.970;2022-11-13T04:10:34;11.80;;;7.90;;
5343;SDS011;2694;48.950;8.970;2022-11-13T04:13:01;12.85;;;8.60;;
5343;SDS011;2694;48.950;8.970;2022-11-13T04:15:28;15.05;;;7.43;;
5343;SDS011;2694;48.950;8.970;2022-11-13T04:17:56;17.43;;;7.77;;
5343;SDS011;2694;48.950;8.970;2022-11-13T04:20:23;14.50;;;7.68;;
5343;SDS011;2694;48.950;8.970;2022-11-13T04:22:56;11.10;;;6.80;;
5343;SDS011;2694;48.950;8.970;2022-11-13T04:25:26;14.63;;;7.27;;
5343;SDS011;2694;48.950;8.970;2022-11-13T04:27:55;16.27;;;7.78;;
5343;SDS011;2694;48.950;8.970;2022-11-13T04:30:22;25.83;;;7.50;;
5343;SDS011;2694;48.950;8.970;2022-11-13T04:32:49;15.40;;;7.80;;
5343;SDS011;2694;48.950;8.970;2022-11-13T04:35:16;10.80;;;6.72;;
5343;SDS011;2694;48.950;8.970;2022-11-13T04:37:43;12.25;;;8.20;;
5343;SDS011;2694;48.950;8.970;2022-11-13T04:40:10;9.07;;;7.13;;
5343;SDS011;2694;48.950;8.970;2022-11-13T04:42:39;16.58;;;7.60;;
5343;SDS011;2694;48.950;8.970;2022-11-13T04:45:15;11.30;;;6.47;;
5343;SDS011;2694;48.950;8.970;2022-11-13T04:47:42;13.45;;;7.53;;
5343;SDS011;2694;48.950;8.970;2022-11-13T04:50:12;9.63;;;7.13;;
5343;SDS011;2694;48.950;8.970;2022-11-13T04:52:40;11.52;;;7.00;;
5343;SDS011;2694;48.950;8.970;2022-11-13T04:55:08;14.90;;;7.47;;
5343;SDS011;2694;48.950;8.970;2022-11-13T04:57:35;12.15;;;7.50;;
5343;SDS011;2694;48.950;8.970;2022-11-13T05:00:06;11.02;;;7.20;;
5343;SDS011;2694;48.950;8.970;2022-11-13T05:02:35;21.33;;;7.80;;
5343;SDS011;2694;48.950;8.970;2022-11-13T05:05:03;11.37;;;6.77;;
5343;SDS011;2694;48.950;8.970;2022-11-13T05:07:30;22.48;;;8.20;;
5343;SDS011;2694;48.950;8.970;2022-11-13T05:09:58;12.18;;;7.70;;
5343;SDS011;2694;48.950;8.970;2022-11-13T05:12:25;10.57;;;7.22;;
5343;SDS011;2694;48.950;8.970;2022-11-13T05:14:52;18.98;;;8.90;;
5343;SDS011;2694;48.950;8.970;2022-11-13T05:17:21;20.63;;;9.20;;
5343;SDS011;2694;48.950;8.970;2022-11-13T05:19:48;29.50;;;8.83;;
5343;SDS011;2694;48.950;8.970;2022-11-13T05:22:15;14.80;;;7.70;;
5343;SDS011;2694;48.950;8.970;2022-11-13T05:24:42;24.20;;;9.40;;
5343;SDS011;2694;48.950;8.970;2022-11-13T05:27:10;21.15;;;8.32;;
5343;SDS011;2694;48.950;8.970;2022-11-13T05:29:37;18.95;;;8.13;;
5343;SDS011;2694;48.950;8.970;2022-11-13T05:32:04;21.02;;;8.25;;
5343;SDS011;2694;48.950;8.970;2022-11-13T05:34:33;26.05;;;8.52;;
5343;SDS011;2694;48.950;8.970;2022-11-13T05:37:01;33.55;;;9.27;;
5343;SDS011;2694;48.950;8.970;2022-11-13T05:39:29;31.15;;;10.43;;
5343;SDS011;2694;48.950;8.970;2022-11-13T05:41:56;14.98;;;8.32;;
5343;SDS011;2694;48.950;8.970;2022-11-13T05:44:24;12.73;;;7.28;;
5343;SDS011;2694;48.950;8.970;2022-11-13T05:46:51;18.15;;;8.90;;
5343;SDS011;2694;48.950;8.970;2022-11-13T05:49:18;30.60;;;8.90;;
5343;SDS011;2694;48.950;8.970;2022-11-13T05:51:47;30.95;;;9.57;;
5343;SDS011;2694;48.950;8.970;2022-11-13T05:54:14;29.13;;;9.30;;
5343;SDS011;2694;48.950;8.970;2022-11-13T05:56:41;17.77;;;9.38;;
5343;SDS011;2694;48.950;8.970;2022-11-13T05:59:09;17.50;;;8.02;;
5343;SDS011;2694;48.950;8.970;2022-11-13T06:01:37;15.37;;;7.87;;
5343;SDS011;2694;48.950;8.970;2022-11-13T06:04:06;14.25;;;7.65;;
5343;SDS011;2694;48.950;8.970;2022-11-13T06:06:35;16.05;;;7.45;;
5343;SDS011;2694;48.950;8.970;2022-11-13T06:09:04;20.45;;;8.30;;
5343;SDS011;2694;48.950;8.970;2022-11-13T06:11:32;19.70;;;8.77;;
5343;SDS011;2694;48.950;8.970;2022-11-13T06:14:00;23.30;;;8.27;;
5343;SDS011;2694;48.950;8.970;2022-11-13T06:16:27;16.35;;;8.23;;
5343;SDS011;2694;48.950;8.970;2022-11-13T06:18:56;16.98;;;8.13;;
5343;SDS011;2694;48.950;8.970;2022-11-13T06:21:27;11.20;;;7.78;;
5343;SDS011;2694;48.950;8.970;2022-11-13T06:23:56;12.70;;;7.97;;
5343;SDS011;2694;48.950;8.970;2022-11-13T06:26:26;13.07;;;8.40;;
5343;SDS011;2694;48.950;8.970;2022-11-13T06:28:54;12.90;;;7.70;;
5343;SDS011;2694;48.950;8.970;2022-11-13T06:31:22;21.98;;;8.18;;
5343;SDS011;2694;48.950;8.970;2022-11-13T06:33:51;10.27;;;7.50;;
5343;SDS011;2694;48.950;8.970;2022-11-13T06:36:19;14.50;;;7.70;;
5343;SDS011;2694;48.950;8.970;2022-11-13T06:38:48;12.10;;;7.60;;
5343;SDS011;2694;48.950;8.970;2022-11-13T06:41:16;14.43;;;8.73;;
5343;SDS011;2694;48.950;8.970;2022-11-13T06:43:46;20.13;;;9.90;;
5343;SDS011;2694;48.950;8.970;2022-11-13T06:46:15;13.50;;;8.13;;
5343;SDS011;2694;48.950;8.970;2022-11-13T06:48:43;15.90;;;8.30;;
5343;SDS011;2694;48.950;8.970;2022-11-13T06:51:12;10.93;;;7.32;;
5343;SDS011;2694;48.950;8.970;2022-11-13T06:53:41;16.40;;;8.20;;
5343;SDS011;2694;48.950;8.970;2022-11-13T06:56:08;13.98;;;7.90;;
5343;SDS011;2694;48.950;8.970;2022-11-13T06:58:36;12.88;;;8.85;;
5343;SDS011;2694;48.950;8.970;2022-11-13T07:01:05;11.83;;;7.90;;
5343;SDS011;2694;48.950;8.970;2022-11-13T07:03:33;21.38;;;8.80;;
5343;SDS011;2694;48.950;8.970;2022-11-13T07:06:01;18.35;;;8.43;;
5343;SDS011;2694;48.950;8.970;2022-11-13T07:08:29;19.52;;;9.00;;
5343;SDS011;2694;48.950;8.970;2022-11-13T07:10:57;18.52;;;7.80;;
5343;SDS011;2694;48.950;8.970;2022-11-13T07:13:24;14.93;;;7.80;;
5343;SDS011;2694;48.950;8.970;2022-11-13T07:15:53;21.80;;;8.50;;
5343;SDS011;2694;48.950;8.970;2022-11-13T07:18:24;15.48;;;9.70;;
5343;SDS011;2694;48.950;8.970;2022-11-13T07:20:52;22.67;;;9.18;;
5343;SDS011;2694;48.950;8.970;2022-11-13T07:23:19;20.35;;;8.13;;
5343;SDS011;2694;48.950;8.970;2022-11-13T07:25:46;12.32;;;7.93;;
5343;SDS011;2694;48.950;8.970;2022-11-13T07:28:13;15.80;;;8.13;;
5343;SDS011;2694;48.950;8.970;2022-11-13T07:30:42;18.85;;;8.18;;
5343;SDS011;2694;48.950;8.970;2022-11-13T07:33:10;15.55;;;8.13;;
5343;SDS011;2694;48.950;8.970;2022-11-13T07:35:39;14.15;;;8.43;;
5343;SDS011;2694;48.950;8.970;2022-11-13T07:38:06;16.88;;;8.07;;
5343;SDS011;2694;48.950;8.970;2022-11-13T07:40:34;12.75;;;7.70;;
5343;SDS011;2694;48.950;8.970;2022-11-13T07:43:01;13.85;;;7.95;;
5343;SDS011;2694;48.950;8.970;2022-11-13T07:45:29;11.57;;;7.10;;
5343;SDS011;2694;48.950;8.970;2022-11-13T07:47:56;14.88;;;8.00;;
5343;SDS011;2694;48.950;8.970;2022-11-13T07:50:24;11.48;;;6.68;;
5343;SDS011;2694;48.950;8.970;2022-11-13T07:52:55;19.40;;;7.25;;
5343;SDS011;2694;48.950;8.970;2022-11-13T07:55:23;11.00;;;6.90;;
5343;SDS011;2694;48.950;8.970;2022-11-13T07:57:50;17.15;;;7.15;;
5343;SDS011;2694;48.950;8.970;2022-11-13T08:00:20;11.00;;;7.25;;
5343;SDS011;2694;48.950;8.970;2022-11-13T08:02:47;12.20;;;7.60;;
5343;SDS011;2694;48.950;8.970;2022-11-13T08:05:15;12.52;;;8.10;;
5343;SDS011;2694;48.950;8.970;2022-11-13T08:07:45;15.20;;;7.50;;
5343;SDS011;2694;48.950;8.970;2022-11-13T08:10:15;11.77;;;7.40;;
5343;SDS011;2694;48.950;8.970;2022-11-13T08:12:44;10.35;;;6.82;;
5343;SDS011;2694;48.950;8.970;2022-11-13T08:15:11;12.40;;;7.50;;
5343;SDS011;2694;48.950;8.970;2022-11-13T08:17:39;14.45;;;8.00;;
5343;SDS011;2694;48.950;8.970;2022-11-13T08:20:07;12.00;;;7.50;;
5343;SDS011;2694;48.950;8.970;2022-11-13T08:22:35;11.77;;;8.00;;
5343;SDS011;2694;48.950;8.970;2022-11-13T08:25:02;11.37;;;7.37;;
5343;SDS011;2694;48.950;8.970;2022-11-13T08:27:31;10.80;;;6.70;;
5343;SDS011;2694;48.950;8.970;2022-11-13T08:29:58;13.60;;;6.97;;
5343;SDS011;2694;48.950;8.970;2022-11-13T08:32:25;10.40;;;6.78;;
5343;SDS011;2694;48.950;8.970;2022-11-13T08:34:52;16.27;;;7.90;;
5343;SDS011;2694;48.950;8.970;2022-11-13T08:37:20;11.52;;;7.60;;
5343;SDS011;2694;48.950;8.970;2022-11-13T08:39:47;10.80;;;6.88;;
5343;SDS011;2694;48.950;8.970;2022-11-13T08:42:14;11.93;;;7.15;;
5343;SDS011;2694;48.950;8.970;2022-11-13T08:44:43;11.45;;;6.40;;
5343;SDS011;2694;48.950;8.970;2022-11-13T08:47:10;15.57;;;7.32;;
5343;SDS011;2694;48.950;8.970;2022-11-13T08:49:37;15.98;;;8.55;;
5343;SDS011;2694;48.950;8.970;2022-11-13T08:52:04;15.38;;;7.20;;
5343;SDS011;2694;48.950;8.970;2022-11-13T08:54:31;13.53;;;8.10;;
5343;SDS011;2694;48.950;8.970;2022-11-13T08:56:58;17.70;;;8.00;;
5343;SDS011;2694;48.950;8.970;2022-11-13T08:59:25;13.48;;;7.93;;
5343;SDS011;2694;48.950;8.970;2022-11-13T09:01:55;13.38;;;7.28;;
5343;SDS011;2694;48.950;8.970;2022-11-13T09:04:23;13.93;;;7.72;;
5343;SDS011;2694;48.950;8.970;2022-11-13T09:06:51;14.40;;;9.20;;
5343;SDS011;2694;48.950;8.970;2022-11-13T09:09:19;16.00;;;8.60;;
5343;SDS011;2694;48.950;8.970;2022-11-13T09:11:47;14.00;;;8.95;;
5343;SDS011;2694;48.950;8.970;2022-11-13T09:14:14;15.57;;;9.35;;
5343;SDS011;2694;48.950;8.970;2022-11-13T09:16:41;17.00;;;9.83;;
5343;SDS011;2694;48.950;8.970;2022-11-13T09:19:10;16.08;;;9.43;;
5343;SDS011;2694;48.950;8.970;2022-11-13T09:21:39;13.77;;;9.48;;
5343;SDS011;2694;48.950;8.970;2022-11-13T09:24:06;14.57;;;9.73;;
5343;SDS011;2694;48.950;8.970;2022-11-13T09:26:34;13.60;;;9.18;;
5343;SDS011;2694;48.950;8.970;2022-11-13T09:29:01;11.10;;;8.10;;
5343;SDS011;2694;48.950;8.970;2022-11-13T09:31:29;14.25;;;8.82;;
5343;SDS011;2694;48.950;8.970;2022-11-13T09:33:56;11.90;;;8.40;;
5343;SDS011;2694;48.950;8.970;2022-11-13T09:36:25;13.27;;;8.95;;
5343;SDS011;2694;48.950;8.970;2022-11-13T09:38:52;19.13;;;7.85;;
5343;SDS011;2694;48.950;8.970;2022-11-13T09:41:20;11.90;;;7.30;;
5343;SDS011;2694;48.950;8.970;2022-11-13T09:43:50;14.80;;;7.80;;
5343;SDS011;2694;48.950;8.970;2022-11-13T09:46:21;12.20;;;7.80;;
5343;SDS011;2694;48.950;8.970;2022-11-13T09:49:00;10.30;;;7.57;;
5343;SDS011;2694;48.950;8.970;2022-11-13T09:51:34;13.90;;;8.35;;
5343;SDS011;2694;48.950;8.970;2022-11-13T09:54:04;11.43;;;7.80;;
5343;SDS011;2694;48.950;8.970;2022-11-13T09:56:32;11.90;;;7.80;;
5343;SDS011;2694;48.950;8.970;2022-11-13T09:59:05;12.20;;;8.18;;
5343;SDS011;2694;48.950;8.970;2022-11-13T10:01:47;11.60;;;7.75;;
5343;SDS011;2694;48.950;8.970;2022-11-13T10:04:23;12.55;;;7.90;;
5343;SDS011;2694;48.950;8.970;2022-11-13T10:07:03;11.23;;;7.90;;
5343;SDS011;2694;48.950;8.970;2022-11-13T10:09:44;12.23;;;8.23;;
5343;SDS011;2694;48.950;8.970;2022-11-13T10:12:20;10.93;;;8.00;;
5343;SDS011;2694;48.950;8.970;2022-11-13T10:14:48;11.40;;;8.00;;
5343;SDS011;2694;48.950;8.970;2022-11-13T10:17:20;11.18;;;7.00;;
5343;SDS011;2694;48.950;8.970;2022-11-13T10:19:54;12.93;;;8.05;;
5343;SDS011;2694;48.950;8.970;2022-11-13T10:22:27;13.55;;;8.00;;
5343;SDS011;2694;48.950;8.970;2022-11-13T10:25:05;13.10;;;8.18;;
5343;SDS011;2694;48.950;8.970;2022-11-13T10:27:38;10.90;;;7.65;;
5343;SDS011;2694;48.950;8.970;2022-11-13T10:30:09;12.02;;;8.10;;
5343;SDS011;2694;48.950;8.970;2022-11-13T10:32:39;11.70;;;7.35;;
5343;SDS011;2694;48.950;8.970;2022-11-13T10:35:11;11.70;;;7.55;;
5343;SDS011;2694;48.950;8.970;2022-11-13T10:37:57;8.55;;;6.47;;
5343;SDS011;2694;48.950;8.970;2022-11-13T10:40:28;10.65;;;7.00;;
5343;SDS011;2694;48.950;8.970;2022-11-13T10:43:04;10.52;;;7.47;;
5343;SDS011;2694;48.950;8.970;2022-11-13T10:45:32;13.98;;;9.40;;
5343;SDS011;2694;48.950;8.970;2022-11-13T10:48:00;9.70;;;7.68;;
5343;SDS011;2694;48.950;8.970;2022-11-13T10:50:28;11.35;;;7.60;;
5343;SDS011;2694;48.950;8.970;2022-11-13T10:52:58;12.98;;;8.48;;
5343;SDS011;2694;48.950;8.970;2022-11-13T10:55:26;13.15;;;9.02;;
5343;SDS011;2694;48.950;8.970;2022-11-13T10:58:08;11.97;;;8.50;;
5343;SDS011;2694;48.950;8.970;2022-11-13T11:00:38;12.55;;;8.65;;
5343;SDS011;2694;48.950;8.970;2022-11-13T11:03:11;11.80;;;8.50;;
5343;SDS011;2694;48.950;8.970;2022-11-13T11:05:50;13.00;;;9.10;;
5343;SDS011;2694;48.950;8.970;2022-11-13T11:08:19;14.05;;;9.15;;
5343;SDS011;2694;48.950;8.970;2022-11-13T11:10:55;12.90;;;9.00;;
5343;SDS011;2694;48.950;8.970;2022-11-13T11:13:41;11.82;;;8.50;;
5343;SDS011;2694;48.950;8.970;2022-11-13T11:16:10;12.90;;;8.98;;
5343;SDS011;2694;48.950;8.970;2022-11-13T11:18:42;11.50;;;8.70;;
5343;SDS011;2694;48.950;8.970;2022-11-13T11:21:16;12.65;;;9.40;;
5343;SDS011;2694;48.950;8.970;2022-11-13T11:23:49;12.68;;;9.05;;
5343;SDS011;2694;48.950;8.970;2022-11-13T11:26:22;13.82;;;9.20;;
5343;SDS011;2694;48.950;8.970;2022-11-13T11:28:58;15.43;;;10.77;;
5343;SDS011;2694;48.950;8.970;2022-11-13T11:31:33;13.70;;;9.70;;
5343;SDS011;2694;48.950;8.970;2022-11-13T11:34:10;14.52;;;10.48;;
5343;SDS011;2694;48.950;8.970;2022-11-13T11:36:45;15.20;;;9.90;;
5343;SDS011;2694;48.950;8.970;2022-11-13T11:39:24;12.35;;;9.75;;
5343;SDS011;2694;48.950;8.970;2022-11-13T11:41:57;12.95;;;9.27;;
5343;SDS011;2694;48.950;8.970;2022-11-13T11:44:35;11.57;;;8.95;;
5343;SDS011;2694;48.950;8.970;2022-11-13T11:47:10;13.25;;;8.10;;
5343;SDS011;2694;48.950;8.970;2022-11-13T11:49:41;12.02;;;9.02;;
5343;SDS011;2694;48.950;8.970;2022-11-13T11:52:13;13.98;;;9.23;;
5343;SDS011;2694;48.950;8.970;2022-11-13T11:54:59;15.75;;;9.68;;
5343;SDS011;2694;48.950;8.970;2022-11-13T11:57:38;13.77;;;9.80;;
5343;SDS011;2694;48.950;8.970;2022-11-13T12:00:14;13.20;;;9.35;;
5343;SDS011;2694;48.950;8.970;2022-11-13T12:02:50;13.30;;;9.48;;
5343;SDS011;2694;48.950;8.970;2022-11-13T12:05:39;13.40;;;9.38;;
5343;SDS011;2694;48.950;8.970;2022-11-13T12:08:14;12.77;;;10.30;;
5343;SDS011;2694;48.950;8.970;2022-11-13T12:11:01;14.45;;;10.20;;
5343;SDS011;2694;48.950;8.970;2022-11-13T12:13:35;13.27;;;9.70;;
5343;SDS011;2694;48.950;8.970;2022-11-13T12:16:09;13.52;;;9.13;;
5343;SDS011;2694;48.950;8.970;2022-11-13T12:18:44;14.13;;;10.35;;
5343;SDS011;2694;48.950;8.970;2022-11-13T12:21:22;12.27;;;8.70;;
5343;SDS011;2694;48.950;8.970;2022-11-13T12:23:58;12.33;;;8.70;;
5343;SDS011;2694;48.950;8.970;2022-11-13T12:26:39;13.35;;;9.10;;
5343;SDS011;2694;48.950;8.970;2022-11-13T12:29:19;13.23;;;8.68;;
5343;SDS011;2694;48.950;8.970;2022-11-13T12:32:00;11.68;;;7.80;;
5343;SDS011;2694;48.950;8.970;2022-11-13T12:34:38;9.88;;;7.75;;
5343;SDS011;2694;48.950;8.970;2022-11-13T12:37:12;15.20;;;9.40;;
5343;SDS011;2694;48.950;8.970;2022-11-13T12:39:45;11.40;;;8.48;;
5343;SDS011;2694;48.950;8.970;2022-11-13T12:42:21;13.80;;;9.60;;
5343;SDS011;2694;48.950;8.970;2022-11-13T12:44:59;16.17;;;9.95;;
5343;SDS011;2694;48.950;8.970;2022-11-13T12:47:34;11.35;;;7.95;;
5343;SDS011;2694;48.950;8.970;2022-11-13T12:50:03;11.27;;;7.57;;
5343;SDS011;2694;48.950;8.970;2022-11-13T12:52:33;9.68;;;6.50;;
5343;SDS011;2694;48.950;8.970;2022-11-13T12:55:07;11.77;;;6.93;;
5343;SDS011;2694;48.950;8.970;2022-11-13T12:57:52;9.85;;;6.60;;
5343;SDS011;2694;48.950;8.970;2022-11-13T13:00:22;9.93;;;6.88;;
5343;SDS011;2694;48.950;8.970;2022-11-13T13:02:55;18.80;;;9.77;;
5343;SDS011;2694;48.950;8.970;2022-11-13T13:05:37;13.52;;;9.43;;
5343;SDS011;2694;48.950;8.970;2022-11-13T13:08:30;11.63;;;7.28;;
5343;SDS011;2694;48.950;8.970;2022-11-13T13:11:21;11.20;;;8.00;;
5343;SDS011;2694;48.950;8.970;2022-11-13T13:14:10;12.30;;;8.32;;
5343;SDS011;2694;48.950;8.970;2022-11-13T13:17:03;12.68;;;8.32;;
5343;SDS011;2694;48.950;8.970;2022-11-13T13:19:32;12.85;;;8.20;;
5343;SDS011;2694;48.950;8.970;2022-11-13T13:22:00;10.63;;;7.60;;
5343;SDS011;2694;48.950;8.970;2022-11-13T13:24:28;10.43;;;8.30;;
5343;SDS011;2694;48.950;8.970;2022-11-13T13:26:58;10.70;;;7.53;;
5343;SDS011;2694;48.950;8.970;2022-11-13T13:29:28;10.00;;;7.40;;
5343;SDS011;2694;48.950;8.970;2022-11-13T13:31:58;12.40;;;7.60;;
5343;SDS011;2694;48.950;8.970;2022-11-13T13:34:35;9.68;;;7.45;;
5343;SDS011;2694;48.950;8.970;2022-11-13T13:37:14;10.13;;;7.00;;
5343;SDS011;2694;48.950;8.970;2022-11-13T13:39:54;11.07;;;7.82;;
5343;SDS011;2694;48.950;8.970;2022-11-13T13:42:34;10.82;;;7.35;;
5343;SDS011;2694;48.950;8.970;2022-11-13T13:45:17;12.63;;;8.07;;
5343;SDS011;2694;48.950;8.970;2022-11-13T13:47:52;12.20;;;8.30;;
5343;SDS011;2694;48.950;8.970;2022-11-13T13:50:23;13.23;;;8.60;;
5343;SDS011;2694;48.950;8.970;2022-11-13T13:52:52;12.00;;;8.20;;
5343;SDS011;2694;48.950;8.970;2022-11-13T13:55:25;10.40;;;7.30;;
5343;SDS011;2694;48.950;8.970;2022-11-13T13:57:56;8.73;;;6.75;;
5343;SDS011;2694;48.950;8.970;2022-11-13T14:00:26;12.97;;;6.83;;
5343;SDS011;2694;48.950;8.970;2022-11-13T14:02:53;8.13;;;6.63;;
5343;SDS011;2694;48.950;8.970;2022-11-13T14:05:24;10.30;;;6.97;;
5343;SDS011;2694;48.950;8.970;2022-11-13T14:07:53;9.65;;;7.05;;
5343;SDS011;2694;48.950;8.970;2022-11-13T14:10:21;10.02;;;6.80;;
5343;SDS011;2694;48.950;8.970;2022-11-13T14:12:50;10.43;;;6.78;;
5343;SDS011;2694;48.950;8.970;2022-11-13T14:15:26;10.80;;;6.45;;
5343;SDS011;2694;48.950;8.970;2022-11-13T14:18:04;8.45;;;6.45;;
5343;SDS011;2694;48.950;8.970;2022-11-13T14:20:35;12.70;;;7.43;;
5343;SDS011;2694;48.950;8.970;2022-11-13T14:23:07;11.65;;;7.78;;
5343;SDS011;2694;48.950;8.970;2022-11-13T14:25:37;14.07;;;7.93;;
5343;SDS011;2694;48.950;8.970;2022-11-13T14:28:10;9.05;;;6.63;;
5343;SDS011;2694;48.950;8.970;2022-11-13T14:30:42;10.30;;;7.20;;
5343;SDS011;2694;48.950;8.970;2022-11-13T14:33:10;9.88;;;6.30;;
5343;SDS011;2694;48.950;8.970;2022-11-13T14:35:48;9.73;;;6.82;;
5343;SDS011;2694;48.950;8.970;2022-11-13T14:38:18;9.77;;;7.25;;
5343;SDS011;2694;48.950;8.970;2022-11-13T14:40:47;10.02;;;6.80;;
5343;SDS011;2694;48.950;8.970;2022-11-13T14:43:15;12.00;;;6.97;;
5343;SDS011;2694;48.950;8.970;2022-11-13T14:45:55;8.88;;;6.20;;
5343;SDS011;2694;48.950;8.970;2022-11-13T14:48:23;8.55;;;5.82;;
5343;SDS011;2694;48.950;8.970;2022-11-13T14:50:53;8.82;;;6.18;;
5343;SDS011;2694;48.950;8.970;2022-11-13T14:53:25;9.85;;;6.63;;
5343;SDS011;2694;48.950;8.970;2022-11-13T14:55:55;8.70;;;6.00;;
5343;SDS011;2694;48.950;8.970;2022-11-13T14:58:27;8.50;;;5.65;;
5343;SDS011;2694;48.950;8.970;2022-11-13T15:00:57;8.48;;;5.90;;
5343;SDS011;2694;48.950;8.970;2022-11-13T15:03:25;8.90;;;5.95;;
5343;SDS011;2694;48.950;8.970;2022-11-13T15:05:52;8.82;;;6.10;;
5343;SDS011;2694;48.950;8.970;2022-11-13T15:08:19;7.75;;;5.80;;
5343;SDS011;2694;48.950;8.970;2022-11-13T15:10:47;9.82;;;6.60;;
5343;SDS011;2694;48.950;8.970;2022-11-13T15:13:15;11.48;;;6.90;;
5343;SDS011;2694;48.950;8.970;2022-11-13T15:15:43;13.00;;;8.00;;
5343;SDS011;2694;48.950;8.970;2022-11-13T15:18:14;20.20;;;11.57;;